createdAt,value
2018-11-03T00:00:38.540Z,9.75
2018-11-03T00:03:05.791Z,9.67
2018-11-03T00:05:33.072Z,9.52
2018-11-03T00:08:00.353Z,9.51
2018-11-03T00:10:27.608Z,9.51
2018-11-03T00:12:54.877Z,9.40
2018-11-03T00:15:22.101Z,9.37
2018-11-03T00:17:49.366Z,9.25
2018-11-03T00:20:16.578Z,9.28
2018-11-03T00:22:43.821Z,9.20
2018-11-03T00:25:11.077Z,9.11
2018-11-03T00:27:38.273Z,9.22
2018-11-03T00:30:07.289Z,9.25
2018-11-03T00:32:34.631Z,9.21
2018-11-03T00:35:01.880Z,9.03
2018-11-03T00:37:29.167Z,9.10
2018-11-03T00:39:56.412Z,9.15
2018-11-03T00:42:23.713Z,9.18
2018-11-03T00:44:50.981Z,9.12
2018-11-03T00:47:18.260Z,9.00
2018-11-03T00:49:45.471Z,8.80
2018-11-03T00:52:12.690Z,8.67
2018-11-03T00:54:39.940Z,8.66
2018-11-03T00:57:07.220Z,8.60
2018-11-03T00:59:34.451Z,8.50
2018-11-03T01:02:01.662Z,8.50
2018-11-03T01:04:28.925Z,8.57
2018-11-03T01:06:56.280Z,8.43
2018-11-03T01:09:23.554Z,8.39
2018-11-03T01:11:50.830Z,8.45
2018-11-03T01:14:18.095Z,8.42
2018-11-03T01:16:45.325Z,8.33
2018-11-03T01:19:12.845Z,8.23
2018-11-03T01:21:40.236Z,8.18
2018-11-03T01:24:07.788Z,8.18
2018-11-03T01:26:35.108Z,8.05
2018-11-03T01:29:02.398Z,7.90
2018-11-03T01:31:29.674Z,7.92
2018-11-03T01:33:56.947Z,7.89
2018-11-03T01:36:24.306Z,7.87
2018-11-03T01:38:51.578Z,7.92
2018-11-03T01:41:18.872Z,7.90
2018-11-03T01:43:46.108Z,7.89
2018-11-03T01:46:13.553Z,7.86
2018-11-03T01:48:40.791Z,7.88
2018-11-03T01:51:08.045Z,7.86
2018-11-03T01:53:35.362Z,7.89
2018-11-03T01:56:02.588Z,7.84
2018-11-03T01:58:29.868Z,7.89
2018-11-03T02:00:57.138Z,7.91
2018-11-03T02:03:24.379Z,7.98
2018-11-03T02:05:51.715Z,7.97
2018-11-03T02:08:18.974Z,7.98
2018-11-03T02:10:46.264Z,7.98
2018-11-03T02:13:13.575Z,7.87
2018-11-03T02:15:40.882Z,7.90
2018-11-03T02:18:08.222Z,7.97
2018-11-03T02:20:35.461Z,8.00
2018-11-03T02:23:02.770Z,7.97
2018-11-03T02:25:30.061Z,7.94
2018-11-03T02:27:57.364Z,7.83
2018-11-03T02:30:24.642Z,7.91
2018-11-03T02:32:51.897Z,7.96
2018-11-03T02:35:19.068Z,7.87
2018-11-03T02:37:46.335Z,7.90
2018-11-03T02:40:13.586Z,8.02
2018-11-03T02:42:48.993Z,8.00
2018-11-03T02:45:16.530Z,7.90
2018-11-03T02:47:43.756Z,7.85
2018-11-03T02:50:12.465Z,7.68
2018-11-03T02:52:39.878Z,7.71
2018-11-03T02:55:07.105Z,7.82
2018-11-03T02:57:34.375Z,7.87
2018-11-03T03:00:01.671Z,7.89
2018-11-03T03:02:28.961Z,7.90
2018-11-03T03:04:56.257Z,7.81
2018-11-03T03:07:23.531Z,7.82
2018-11-03T03:09:50.779Z,7.94
2018-11-03T03:12:18.032Z,7.95
2018-11-03T03:14:45.285Z,8.06
2018-11-03T03:17:12.606Z,8.13
2018-11-03T03:19:39.803Z,8.14
2018-11-03T03:22:07.013Z,8.13
2018-11-03T03:24:34.250Z,8.12
2018-11-03T03:27:01.582Z,8.16
2018-11-03T03:29:29.012Z,8.18
2018-11-03T03:31:56.179Z,8.18
2018-11-03T03:34:23.369Z,8.16
2018-11-03T03:36:50.610Z,8.20
2018-11-03T03:39:17.836Z,8.25
2018-11-03T03:41:45.221Z,8.20
2018-11-03T03:44:12.411Z,8.24
2018-11-03T03:46:39.648Z,8.22
2018-11-03T03:49:06.925Z,8.22
2018-11-03T03:51:34.169Z,8.23
2018-11-03T03:54:01.431Z,8.23
2018-11-03T03:56:28.697Z,8.25
2018-11-03T03:58:55.952Z,8.22
2018-11-03T04:01:23.208Z,8.16
2018-11-03T04:03:50.454Z,8.10
2018-11-03T04:06:17.701Z,8.12
2018-11-03T04:08:44.901Z,8.14
2018-11-03T04:11:12.147Z,8.17
2018-11-03T04:13:39.411Z,8.14
2018-11-03T04:16:06.689Z,8.10
2018-11-03T04:18:34.006Z,8.12
2018-11-03T04:21:01.276Z,8.18
2018-11-03T04:23:28.471Z,8.03
2018-11-03T04:25:55.730Z,8.04
2018-11-03T04:28:23.068Z,8.03
2018-11-03T04:30:50.338Z,8.05
2018-11-03T04:33:17.570Z,8.12
2018-11-03T04:35:44.835Z,8.12
2018-11-03T04:38:12.124Z,8.17
2018-11-03T04:40:39.417Z,8.14
2018-11-03T04:43:06.763Z,8.17
2018-11-03T04:45:35.045Z,8.12
2018-11-03T04:48:02.358Z,8.13
2018-11-03T04:50:29.606Z,8.18
2018-11-03T04:52:56.821Z,8.20
2018-11-03T04:55:24.088Z,8.14
2018-11-03T04:57:51.319Z,8.14
2018-11-03T05:00:18.592Z,8.15
2018-11-03T05:02:45.828Z,8.11
2018-11-03T05:05:13.106Z,8.10
2018-11-03T05:07:40.398Z,7.96
2018-11-03T05:10:08.280Z,7.97
2018-11-03T05:12:35.838Z,8.05
2018-11-03T05:15:03.203Z,8.10
2018-11-03T05:17:30.481Z,8.09
2018-11-03T05:20:01.622Z,6.65
2018-11-03T05:22:28.953Z,7.99
2018-11-03T05:24:56.249Z,8.02
2018-11-03T05:27:23.490Z,8.04
2018-11-03T05:29:50.804Z,8.05
2018-11-03T05:32:18.067Z,8.07
2018-11-03T05:34:45.347Z,8.12
2018-11-03T05:37:12.557Z,8.12
2018-11-03T05:39:39.820Z,8.06
2018-11-03T05:42:07.134Z,8.09
2018-11-03T05:44:34.523Z,8.05
2018-11-03T05:47:01.830Z,8.14
2018-11-03T05:49:29.040Z,8.12
2018-11-03T05:51:56.285Z,8.17
2018-11-03T05:54:23.584Z,8.15
2018-11-03T05:56:50.830Z,8.13
2018-11-03T05:59:18.078Z,8.13
2018-11-03T06:01:45.329Z,7.90
2018-11-03T06:04:12.637Z,7.88
2018-11-03T06:06:39.859Z,7.92
2018-11-03T06:09:08.228Z,7.95
2018-11-03T06:11:35.494Z,8.07
2018-11-03T06:14:02.807Z,8.10
2018-11-03T06:16:30.107Z,8.14
2018-11-03T06:18:57.379Z,8.03
2018-11-03T06:21:24.602Z,8.06
2018-11-03T06:23:51.985Z,8.18
2018-11-03T06:26:19.438Z,8.18
2018-11-03T06:28:46.795Z,8.23
2018-11-03T06:31:14.095Z,8.21
2018-11-03T06:33:41.451Z,8.23
2018-11-03T06:36:08.721Z,8.28
2018-11-03T06:38:35.975Z,8.22
2018-11-03T06:41:03.360Z,8.23
2018-11-03T06:43:30.629Z,8.22
2018-11-03T06:45:57.910Z,8.20
2018-11-03T06:48:25.273Z,8.09
2018-11-03T06:50:52.498Z,8.11
2018-11-03T06:53:19.753Z,8.14
2018-11-03T06:55:47.035Z,8.14
2018-11-03T06:58:14.245Z,8.18
2018-11-03T07:00:41.584Z,8.26
2018-11-03T07:03:08.782Z,8.18
2018-11-03T07:05:36.132Z,8.12
2018-11-03T07:08:03.374Z,7.78
2018-11-03T07:10:30.653Z,8.02
2018-11-03T07:12:58.107Z,8.10
2018-11-03T07:15:25.246Z,8.31
2018-11-03T07:17:52.508Z,8.41
2018-11-03T07:20:19.818Z,8.47
2018-11-03T07:22:47.127Z,8.54
2018-11-03T07:25:14.381Z,8.62
2018-11-03T07:27:41.609Z,8.74
2018-11-03T07:30:10.261Z,8.80
2018-11-03T07:32:37.811Z,8.82
2018-11-03T07:35:05.179Z,8.82
2018-11-03T07:37:32.426Z,8.88
2018-11-03T07:39:59.783Z,8.84
2018-11-03T07:42:27.223Z,8.87
2018-11-03T07:44:54.559Z,8.98
2018-11-03T07:47:21.887Z,9.00
2018-11-03T07:49:49.195Z,9.02
2018-11-03T07:52:16.375Z,9.06
2018-11-03T07:54:43.741Z,9.20
2018-11-03T07:57:10.890Z,9.33
2018-11-03T07:59:38.094Z,9.32
2018-11-03T08:02:05.660Z,9.36
2018-11-03T08:04:32.981Z,9.38
2018-11-03T08:07:00.261Z,9.45
2018-11-03T08:09:27.497Z,9.57
2018-11-03T08:11:54.772Z,9.66
2018-11-03T08:14:22.046Z,9.75
2018-11-03T08:16:49.328Z,9.80
2018-11-03T08:19:16.519Z,9.74
2018-11-03T08:21:43.840Z,9.59
2018-11-03T08:24:11.570Z,9.66
2018-11-03T08:26:38.900Z,9.77
2018-11-03T08:29:06.139Z,9.85
2018-11-03T08:31:33.484Z,10.00
2018-11-03T08:34:00.666Z,10.01
2018-11-03T08:36:27.936Z,10.01
2018-11-03T08:38:55.235Z,10.04
2018-11-03T08:41:22.481Z,10.05
2018-11-03T08:43:49.856Z,10.09
2018-11-03T08:46:17.083Z,10.01
2018-11-03T08:48:44.488Z,10.11
2018-11-03T08:51:11.630Z,10.24
2018-11-03T08:53:38.982Z,10.04
2018-11-03T08:56:06.260Z,10.01
2018-11-03T08:58:33.485Z,10.01
2018-11-03T09:01:01.073Z,10.12
2018-11-03T09:03:28.514Z,10.29
2018-11-03T09:05:55.750Z,10.35
2018-11-03T09:08:23.020Z,10.48
2018-11-03T09:10:50.375Z,10.61
2018-11-03T09:13:17.659Z,10.51
2018-11-03T09:15:44.960Z,10.45
2018-11-03T09:18:12.174Z,10.49
2018-11-03T09:20:39.505Z,10.56
2018-11-03T09:23:06.767Z,10.63
2018-11-03T09:25:33.985Z,10.72
2018-11-03T09:28:01.255Z,10.75
2018-11-03T09:30:28.542Z,10.72
2018-11-03T09:32:55.837Z,10.79
2018-11-03T09:35:23.122Z,10.90
2018-11-03T09:37:50.381Z,10.81
2018-11-03T09:40:18.099Z,10.91
2018-11-03T09:42:46.358Z,10.97
2018-11-03T09:45:13.831Z,11.06
2018-11-03T09:47:41.496Z,11.07
2018-11-03T09:50:10.261Z,11.24
2018-11-03T09:52:37.921Z,11.30
2018-11-03T09:55:06.926Z,10.97
2018-11-03T09:57:34.163Z,10.67
2018-11-03T10:00:01.490Z,10.46
2018-11-03T10:02:28.934Z,10.62
2018-11-03T10:04:56.269Z,10.76
2018-11-03T10:07:23.634Z,10.88
2018-11-03T10:09:51.077Z,10.98
2018-11-03T10:12:18.443Z,11.03
2018-11-03T10:14:45.845Z,11.11
2018-11-03T10:17:13.209Z,11.21
2018-11-03T10:19:40.581Z,11.28
2018-11-03T10:22:08.023Z,10.99
2018-11-03T10:24:35.269Z,11.49
2018-11-03T10:27:02.637Z,11.54
2018-11-03T10:29:29.817Z,11.52
2018-11-03T10:31:57.103Z,11.61
2018-11-03T10:34:24.354Z,11.68
2018-11-03T10:36:51.605Z,11.82
2018-11-03T10:39:18.859Z,11.68
2018-11-03T10:41:46.125Z,11.64
2018-11-03T10:44:13.424Z,11.70
2018-11-03T10:46:40.723Z,11.78
2018-11-03T10:49:08.043Z,11.97
2018-11-03T10:51:35.297Z,12.09
2018-11-03T10:54:02.549Z,12.01
2018-11-03T10:56:29.712Z,12.04
2018-11-03T10:58:57.097Z,11.98
2018-11-03T11:01:30.162Z,12.01
2018-11-03T11:04:03.168Z,11.96
2018-11-03T11:06:36.072Z,12.09
2018-11-03T11:09:09.662Z,12.32
2018-11-03T11:11:42.433Z,12.58
2018-11-03T11:14:09.880Z,12.52
2018-11-03T11:16:37.017Z,12.38
2018-11-03T11:19:04.288Z,12.36
2018-11-03T11:21:31.534Z,12.45
2018-11-03T11:23:58.838Z,12.23
2018-11-03T11:26:26.044Z,12.30
2018-11-03T11:28:53.293Z,12.68
2018-11-03T11:31:20.643Z,12.77
2018-11-03T11:33:47.851Z,13.12
2018-11-03T11:36:15.070Z,13.35
2018-11-03T11:38:42.417Z,12.93
2018-11-03T11:41:09.585Z,12.89
2018-11-03T11:43:36.852Z,13.57
2018-11-03T11:46:04.250Z,13.85
2018-11-03T11:48:31.461Z,14.35
2018-11-03T11:50:58.753Z,14.68
2018-11-03T11:53:25.985Z,15.13
2018-11-03T11:55:53.181Z,15.38
2018-11-03T11:58:20.440Z,15.72
2018-11-03T12:00:47.777Z,15.69
2018-11-03T12:03:14.978Z,15.65
2018-11-03T12:05:42.256Z,15.84
2018-11-03T12:08:09.593Z,16.00
2018-11-03T12:10:36.828Z,15.77
2018-11-03T12:13:04.282Z,15.98
2018-11-03T12:15:31.560Z,16.27
2018-11-03T12:17:58.876Z,16.50
2018-11-03T12:20:26.127Z,16.51
2018-11-03T12:22:53.377Z,16.49
2018-11-03T12:25:20.708Z,16.41
2018-11-03T12:27:55.746Z,16.83
2018-11-03T12:30:23.014Z,17.46
2018-11-03T12:32:51.164Z,17.62
2018-11-03T12:35:18.409Z,17.39
2018-11-03T12:37:45.679Z,17.25
2018-11-03T12:40:14.043Z,16.89
2018-11-03T12:42:41.316Z,16.72
2018-11-03T12:45:09.245Z,16.43
2018-11-03T12:47:36.599Z,16.30
2018-11-03T12:50:04.294Z,15.97
2018-11-03T12:52:31.777Z,15.41
2018-11-03T12:54:59.607Z,15.44
2018-11-03T12:57:26.971Z,15.61
2018-11-03T12:59:54.299Z,15.78
2018-11-03T13:02:21.574Z,15.81
2018-11-03T13:04:48.901Z,15.65
2018-11-03T13:07:16.179Z,15.57
2018-11-03T13:09:43.601Z,15.75
2018-11-03T13:12:10.705Z,15.80
2018-11-03T13:14:38.099Z,15.48
2018-11-03T13:17:05.560Z,15.67
2018-11-03T13:19:33.049Z,15.46
2018-11-03T13:22:00.529Z,15.26
2018-11-03T13:24:27.798Z,15.12
2018-11-03T13:26:55.336Z,15.03
2018-11-03T13:29:22.844Z,14.94
2018-11-03T13:31:50.147Z,14.97
2018-11-03T13:34:17.650Z,14.92
2018-11-03T13:36:44.940Z,14.68
2018-11-03T13:39:12.281Z,14.45
2018-11-03T13:41:39.604Z,14.29
2018-11-03T13:44:07.232Z,14.22
2018-11-03T13:46:34.660Z,14.16
2018-11-03T13:49:02.225Z,14.05
2018-11-03T13:51:29.524Z,13.79
2018-11-03T13:53:56.990Z,13.73
2018-11-03T13:56:24.239Z,13.70
2018-11-03T13:58:51.849Z,13.50
2018-11-03T14:01:19.154Z,13.53
2018-11-03T14:03:46.415Z,13.37
2018-11-03T14:06:13.762Z,13.19
2018-11-03T14:08:41.005Z,13.16
2018-11-03T14:11:08.234Z,13.04
2018-11-03T14:13:35.428Z,13.02
2018-11-03T14:16:02.668Z,13.06
2018-11-03T14:18:30.018Z,12.92
2018-11-03T14:20:57.242Z,12.91
2018-11-03T14:23:24.502Z,12.95
2018-11-03T14:25:51.666Z,12.95
2018-11-03T14:28:18.940Z,12.93
2018-11-03T14:30:46.394Z,12.93
2018-11-03T14:33:13.996Z,12.96
2018-11-03T14:35:41.325Z,12.90
2018-11-03T14:38:08.719Z,12.92
2018-11-03T14:40:35.997Z,12.82
2018-11-03T14:43:03.232Z,12.76
2018-11-03T14:45:32.578Z,12.74
2018-11-03T14:47:59.889Z,12.58
2018-11-03T14:50:32.366Z,12.59
2018-11-03T14:52:59.798Z,12.44
2018-11-03T14:55:27.083Z,12.42
2018-11-03T14:57:54.481Z,12.40
2018-11-03T15:00:21.718Z,12.42
2018-11-03T15:02:48.952Z,12.39
2018-11-03T15:05:16.211Z,12.45
2018-11-03T15:07:43.409Z,12.34
2018-11-03T15:10:11.498Z,12.28
2018-11-03T15:12:39.422Z,12.26
2018-11-03T15:15:08.160Z,12.23
2018-11-03T15:17:35.412Z,12.22
2018-11-03T15:20:02.682Z,12.17
2018-11-03T15:22:29.937Z,11.98
2018-11-03T15:24:57.173Z,11.97
2018-11-03T15:27:24.429Z,11.95
2018-11-03T15:29:51.707Z,12.01
2018-11-03T15:32:18.958Z,11.99
2018-11-03T15:34:46.223Z,12.00
2018-11-03T15:37:13.513Z,12.03
2018-11-03T15:39:40.761Z,12.01
2018-11-03T15:42:08.109Z,11.94
2018-11-03T15:44:35.358Z,12.01
2018-11-03T15:47:02.610Z,12.03
2018-11-03T15:49:29.879Z,11.96
2018-11-03T15:51:57.102Z,11.89
2018-11-03T15:54:24.578Z,11.76
2018-11-03T15:56:51.857Z,11.75
2018-11-03T15:59:19.106Z,11.77
2018-11-03T16:01:46.372Z,11.79
2018-11-03T16:04:13.686Z,11.83
2018-11-03T16:06:40.961Z,11.77
2018-11-03T16:09:09.764Z,11.78
2018-11-03T16:11:37.063Z,11.79
2018-11-03T16:14:04.641Z,11.74
2018-11-03T16:16:31.945Z,11.61
2018-11-03T16:18:59.206Z,11.59
2018-11-03T16:21:26.421Z,11.50
2018-11-03T16:23:53.729Z,11.49
2018-11-03T16:26:20.923Z,11.45
2018-11-03T16:28:48.240Z,11.37
2018-11-03T16:31:15.503Z,11.38
2018-11-03T16:33:42.744Z,11.23
2018-11-03T16:36:10.047Z,10.95
2018-11-03T16:38:37.408Z,11.33
2018-11-03T16:41:04.637Z,11.39
2018-11-03T16:43:31.894Z,11.42
2018-11-03T16:45:59.174Z,11.40
2018-11-03T16:48:26.485Z,11.34
2018-11-03T16:50:53.755Z,11.26
2018-11-03T16:53:21.024Z,11.19
2018-11-03T16:55:48.263Z,11.12
2018-11-03T16:58:15.482Z,11.13
2018-11-03T17:00:42.737Z,11.20
2018-11-03T17:03:09.984Z,11.23
2018-11-03T17:05:37.242Z,11.15
2018-11-03T17:08:04.574Z,10.66
2018-11-03T17:10:31.824Z,11.17
2018-11-03T17:12:59.150Z,11.13
2018-11-03T17:15:26.393Z,11.12
2018-11-03T17:17:53.587Z,11.08
2018-11-03T17:20:20.850Z,11.05
2018-11-03T17:22:48.069Z,11.07
2018-11-03T17:25:15.388Z,11.11
2018-11-03T17:27:42.629Z,11.08
2018-11-03T17:30:11.974Z,11.08
2018-11-03T17:32:39.226Z,11.09
2018-11-03T17:35:06.503Z,10.99
2018-11-03T17:37:33.715Z,10.95
2018-11-03T17:40:00.945Z,10.91
2018-11-03T17:42:28.247Z,10.98
2018-11-03T17:44:55.462Z,11.03
2018-11-03T17:47:22.872Z,11.07
2018-11-03T17:49:50.207Z,10.90
2018-11-03T17:52:17.641Z,10.89
2018-11-03T17:54:45.154Z,10.96
2018-11-03T17:57:12.440Z,11.05
2018-11-03T17:59:39.700Z,11.03
2018-11-03T18:02:07.007Z,11.03
2018-11-03T18:04:34.215Z,11.08
2018-11-03T18:07:01.695Z,11.11
2018-11-03T18:09:29.727Z,11.08
2018-11-03T18:11:57.453Z,11.07
2018-11-03T18:14:25.197Z,11.06
2018-11-03T18:16:52.483Z,11.09
2018-11-03T18:19:19.712Z,11.09
2018-11-03T18:21:46.992Z,11.08
2018-11-03T18:24:14.198Z,11.12
2018-11-03T18:26:41.558Z,11.06
2018-11-03T18:29:08.747Z,11.09
2018-11-03T18:31:36.281Z,11.13
2018-11-03T18:34:03.581Z,11.08
2018-11-03T18:36:31.403Z,11.12
2018-11-03T18:38:58.706Z,11.13
2018-11-03T18:41:25.991Z,11.12
2018-11-03T18:43:53.240Z,11.19
2018-11-03T18:46:20.542Z,11.09
2018-11-03T18:48:47.783Z,11.12
2018-11-03T18:51:15.051Z,11.14
2018-11-03T18:53:42.274Z,11.15
2018-11-03T18:56:09.667Z,11.24
2018-11-03T18:58:36.956Z,11.03
2018-11-03T19:01:04.860Z,10.88
2018-11-03T19:03:32.170Z,10.87
2018-11-03T19:05:59.451Z,10.92
2018-11-03T19:08:26.683Z,10.98
2018-11-03T19:10:53.984Z,11.04
2018-11-03T19:13:21.282Z,11.09
2018-11-03T19:15:48.515Z,11.10
2018-11-03T19:18:16.026Z,11.00
2018-11-03T19:20:43.341Z,11.06
2018-11-03T19:23:10.603Z,10.95
2018-11-03T19:25:37.858Z,10.93
2018-11-03T19:28:05.137Z,10.86
2018-11-03T19:30:32.734Z,10.78
2018-11-03T19:33:00.102Z,10.72
2018-11-03T19:35:27.391Z,10.82
2018-11-03T19:37:54.631Z,10.89
2018-11-03T19:40:21.969Z,10.95
2018-11-03T19:42:50.038Z,11.09
2018-11-03T19:45:17.493Z,11.11
2018-11-03T19:47:45.617Z,11.17
2018-11-03T19:50:12.983Z,11.19
2018-11-03T19:52:40.220Z,11.19
2018-11-03T19:55:07.527Z,11.22
2018-11-03T19:57:34.774Z,11.26
2018-11-03T20:00:02.053Z,11.26
2018-11-03T20:02:29.348Z,11.29
2018-11-03T20:04:56.595Z,11.28
2018-11-03T20:07:24.264Z,11.25
2018-11-03T20:09:51.920Z,11.27
2018-11-03T20:12:19.625Z,11.27
2018-11-03T20:14:46.901Z,11.32
2018-11-03T20:17:14.166Z,11.30
2018-11-03T20:19:41.461Z,11.23
2018-11-03T20:22:08.781Z,10.99
2018-11-03T20:24:36.222Z,11.01
2018-11-03T20:27:03.575Z,11.07
2018-11-03T20:32:11.208Z,11.26
2018-11-03T20:34:38.838Z,11.24
2018-11-03T20:37:09.373Z,11.20
2018-11-03T20:39:36.972Z,11.20
2018-11-03T20:42:06.548Z,11.20
2018-11-03T20:44:34.161Z,11.27
2018-11-03T20:47:01.526Z,11.27
2018-11-03T20:50:00.124Z,11.23
2018-11-03T20:52:28.419Z,11.20
2018-11-03T20:54:57.937Z,11.22
2018-11-03T20:57:25.699Z,11.06
2018-11-03T20:59:55.079Z,10.92
2018-11-03T21:02:22.690Z,11.05
2018-11-03T21:04:50.915Z,11.12
2018-11-03T21:07:21.647Z,11.13
2018-11-03T21:09:49.227Z,11.18
2018-11-03T21:12:16.767Z,11.26
2018-11-03T21:14:44.932Z,11.23
2018-11-03T21:17:13.577Z,11.18
2018-11-03T21:19:41.041Z,11.08
2018-11-03T21:22:09.927Z,11.06
2018-11-03T21:24:37.810Z,11.12
2018-11-03T21:27:07.812Z,11.21
2018-11-03T21:29:36.641Z,11.17
2018-11-03T21:32:05.957Z,11.17
2018-11-03T21:34:33.354Z,11.10
2018-11-03T21:37:01.791Z,11.13
2018-11-03T21:39:29.332Z,11.19
2018-11-03T21:42:14.395Z,11.27
2018-11-03T21:44:42.818Z,11.26
2018-11-03T21:47:10.592Z,11.31
2018-11-03T21:49:40.132Z,11.31
2018-11-03T21:52:07.697Z,11.33
2018-11-03T21:54:35.863Z,11.31
2018-11-03T21:57:03.499Z,11.36
2018-11-03T21:59:31.120Z,11.35
2018-11-03T22:01:58.433Z,11.35
2018-11-03T22:04:25.822Z,11.31
2018-11-03T22:06:54.968Z,11.25
2018-11-03T22:09:23.078Z,11.27
2018-11-03T22:11:51.505Z,11.23
2018-11-03T22:14:19.233Z,11.30
2018-11-03T22:16:47.216Z,11.14
2018-11-03T22:19:19.815Z,11.10
2018-11-03T22:21:47.836Z,11.13
2018-11-03T22:24:15.303Z,11.12
2018-11-03T22:26:43.796Z,11.08
2018-11-03T22:29:11.283Z,11.11
2018-11-03T22:31:38.980Z,10.97
2018-11-03T22:34:06.346Z,11.01
2018-11-03T22:36:35.327Z,10.99
2018-11-03T22:39:04.860Z,10.92
2018-11-03T22:41:33.048Z,10.83
2018-11-03T22:44:01.881Z,10.91
2018-11-03T22:46:29.504Z,10.99
2018-11-03T22:48:57.338Z,11.04
2018-11-03T22:51:24.843Z,11.05
2018-11-03T22:53:52.285Z,11.08
2018-11-03T22:56:20.037Z,11.12
2018-11-03T22:58:49.189Z,11.15
2018-11-03T23:01:16.976Z,11.18
2018-11-03T23:03:44.799Z,11.07
2018-11-03T23:06:12.710Z,11.09
2018-11-03T23:08:40.258Z,11.05
2018-11-03T23:11:07.715Z,11.10
2018-11-03T23:13:35.485Z,11.13
2018-11-03T23:16:06.875Z,11.15
2018-11-03T23:18:34.160Z,11.17
2018-11-03T23:21:01.710Z,11.15
2018-11-03T23:23:28.991Z,11.02
2018-11-03T23:25:57.505Z,11.05
2018-11-03T23:28:24.989Z,11.09
2018-11-03T23:30:52.587Z,11.10
2018-11-03T23:33:22.617Z,11.06
2018-11-03T23:35:50.064Z,11.04
2018-11-03T23:38:19.348Z,11.03
2018-11-03T23:40:49.776Z,11.05
2018-11-03T23:43:17.415Z,11.02
2018-11-03T23:45:45.117Z,11.08
2018-11-03T23:48:12.575Z,11.10
2018-11-03T23:50:42.108Z,11.11
2018-11-03T23:53:09.562Z,11.14
2018-11-03T23:55:37.154Z,11.09
2018-11-03T23:58:04.883Z,11.11
